sensor_id;sensor_type;location;lat;lon;timestamp;P1;durP1;ratioP1;P2;durP2;ratioP2
10557;SDS011;5327;47.238;-2.304;2023-03-11T00:02:08;7.23;;;3.70;;
10557;SDS011;5327;47.238;-2.304;2023-03-11T00:04:34;10.63;;;4.53;;
10557;SDS011;5327;47.238;-2.304;2023-03-11T00:07:00;7.30;;;4.07;;
10557;SDS011;5327;47.238;-2.304;2023-03-11T00:09:25;11.50;;;3.70;;
10557;SDS011;5327;47.238;-2.304;2023-03-11T00:11:51;9.37;;;4.20;;
10557;SDS011;5327;47.238;-2.304;2023-03-11T00:14:16;9.73;;;4.20;;
10557;SDS011;5327;47.238;-2.304;2023-03-11T00:16:42;10.53;;;5.43;;
10557;SDS011;5327;47.238;-2.304;2023-03-11T00:19:08;6.30;;;4.27;;
10557;SDS011;5327;47.238;-2.304;2023-03-11T00:21:34;11.90;;;6.20;;
10557;SDS011;5327;47.238;-2.304;2023-03-11T00:24:00;9.33;;;4.70;;
10557;SDS011;5327;47.238;-2.304;2023-03-11T00:26:27;7.70;;;3.60;;
10557;SDS011;5327;47.238;-2.304;2023-03-11T00:28:53;8.37;;;4.33;;
10557;SDS011;5327;47.238;-2.304;2023-03-11T00:31:19;6.30;;;3.70;;
10557;SDS011;5327;47.238;-2.304;2023-03-11T00:33:46;7.03;;;3.87;;
10557;SDS011;5327;47.238;-2.304;2023-03-11T00:36:20;5.30;;;3.00;;
10557;SDS011;5327;47.238;-2.304;2023-03-11T00:38:53;9.33;;;4.13;;
10557;SDS011;5327;47.238;-2.304;2023-03-11T00:41:19;6.93;;;3.40;;
10557;SDS011;5327;47.238;-2.304;2023-03-11T00:43:45;8.00;;;4.50;;
10557;SDS011;5327;47.238;-2.304;2023-03-11T00:46:10;6.83;;;3.07;;
10557;SDS011;5327;47.238;-2.304;2023-03-11T00:48:36;7.17;;;3.77;;
10557;SDS011;5327;47.238;-2.304;2023-03-11T00:51:02;8.13;;;3.33;;
10557;SDS011;5327;47.238;-2.304;2023-03-11T00:53:28;9.20;;;4.40;;
10557;SDS011;5327;47.238;-2.304;2023-03-11T00:55:53;7.70;;;4.40;;
10557;SDS011;5327;47.238;-2.304;2023-03-11T00:58:19;7.43;;;3.80;;
10557;SDS011;5327;47.238;-2.304;2023-03-11T01:00:46;8.50;;;4.43;;
10557;SDS011;5327;47.238;-2.304;2023-03-11T01:03:12;9.20;;;4.57;;
10557;SDS011;5327;47.238;-2.304;2023-03-11T01:05:38;8.70;;;4.70;;
10557;SDS011;5327;47.238;-2.304;2023-03-11T01:08:04;10.20;;;5.30;;
10557;SDS011;5327;47.238;-2.304;2023-03-11T01:10:30;8.57;;;4.57;;
10557;SDS011;5327;47.238;-2.304;2023-03-11T01:12:57;7.50;;;3.97;;
10557;SDS011;5327;47.238;-2.304;2023-03-11T01:15:25;6.03;;;3.83;;
10557;SDS011;5327;47.238;-2.304;2023-03-11T01:18:00;11.63;;;5.40;;
10557;SDS011;5327;47.238;-2.304;2023-03-11T01:20:27;8.70;;;4.77;;
10557;SDS011;5327;47.238;-2.304;2023-03-11T01:22:52;8.53;;;4.40;;
10557;SDS011;5327;47.238;-2.304;2023-03-11T01:25:19;10.10;;;5.47;;
10557;SDS011;5327;47.238;-2.304;2023-03-11T01:27:46;9.07;;;4.83;;
10557;SDS011;5327;47.238;-2.304;2023-03-11T01:30:13;10.70;;;5.40;;
10557;SDS011;5327;47.238;-2.304;2023-03-11T01:32:41;7.33;;;3.97;;
10557;SDS011;5327;47.238;-2.304;2023-03-11T01:35:08;10.47;;;4.50;;
10557;SDS011;5327;47.238;-2.304;2023-03-11T01:37:35;7.17;;;3.70;;
10557;SDS011;5327;47.238;-2.304;2023-03-11T01:40:01;7.30;;;3.97;;
10557;SDS011;5327;47.238;-2.304;2023-03-11T01:42:26;12.07;;;5.57;;
10557;SDS011;5327;47.238;-2.304;2023-03-11T01:44:52;9.20;;;4.67;;
10557;SDS011;5327;47.238;-2.304;2023-03-11T01:49:59;10.87;;;5.43;;
10557;SDS011;5327;47.238;-2.304;2023-03-11T01:52:25;10.03;;;4.90;;
10557;SDS011;5327;47.238;-2.304;2023-03-11T01:54:52;7.27;;;3.90;;
10557;SDS011;5327;47.238;-2.304;2023-03-11T01:57:17;7.77;;;4.07;;
10557;SDS011;5327;47.238;-2.304;2023-03-11T01:59:50;9.53;;;4.97;;
10557;SDS011;5327;47.238;-2.304;2023-03-11T02:02:24;11.43;;;5.50;;
10557;SDS011;5327;47.238;-2.304;2023-03-11T02:05:01;10.57;;;5.57;;
10557;SDS011;5327;47.238;-2.304;2023-03-11T02:07:28;8.73;;;4.80;;
10557;SDS011;5327;47.238;-2.304;2023-03-11T02:09:53;14.17;;;6.07;;
10557;SDS011;5327;47.238;-2.304;2023-03-11T02:12:19;9.80;;;5.60;;
10557;SDS011;5327;47.238;-2.304;2023-03-11T02:14:46;10.50;;;5.80;;
10557;SDS011;5327;47.238;-2.304;2023-03-11T02:17:15;10.23;;;5.40;;
10557;SDS011;5327;47.238;-2.304;2023-03-11T02:19:51;12.80;;;5.60;;
10557;SDS011;5327;47.238;-2.304;2023-03-11T02:22:20;10.50;;;5.70;;
10557;SDS011;5327;47.238;-2.304;2023-03-11T02:25:21;8.63;;;4.33;;
10557;SDS011;5327;47.238;-2.304;2023-03-11T02:27:43;9.40;;;5.10;;
10557;SDS011;5327;47.238;-2.304;2023-03-11T02:30:12;8.17;;;4.10;;
10557;SDS011;5327;47.238;-2.304;2023-03-11T02:32:39;9.00;;;4.23;;
10557;SDS011;5327;47.238;-2.304;2023-03-11T02:35:06;10.60;;;5.27;;
10557;SDS011;5327;47.238;-2.304;2023-03-11T02:37:32;11.60;;;6.23;;
10557;SDS011;5327;47.238;-2.304;2023-03-11T02:42:53;11.07;;;5.33;;
10557;SDS011;5327;47.238;-2.304;2023-03-11T02:45:21;9.53;;;4.57;;
10557;SDS011;5327;47.238;-2.304;2023-03-11T02:47:49;10.40;;;5.53;;
10557;SDS011;5327;47.238;-2.304;2023-03-11T02:50:18;17.53;;;6.40;;
10557;SDS011;5327;47.238;-2.304;2023-03-11T02:52:43;11.03;;;4.90;;
10557;SDS011;5327;47.238;-2.304;2023-03-11T02:55:12;11.80;;;5.50;;
10557;SDS011;5327;47.238;-2.304;2023-03-11T02:57:38;11.20;;;4.70;;
10557;SDS011;5327;47.238;-2.304;2023-03-11T03:00:04;10.40;;;5.03;;
10557;SDS011;5327;47.238;-2.304;2023-03-11T03:02:37;8.07;;;4.13;;
10557;SDS011;5327;47.238;-2.304;2023-03-11T03:05:03;9.70;;;5.03;;
10557;SDS011;5327;47.238;-2.304;2023-03-11T03:07:30;11.90;;;5.33;;
10557;SDS011;5327;47.238;-2.304;2023-03-11T03:09:55;10.60;;;5.03;;
10557;SDS011;5327;47.238;-2.304;2023-03-11T03:12:21;12.37;;;5.70;;
10557;SDS011;5327;47.238;-2.304;2023-03-11T03:14:47;15.03;;;6.90;;
10557;SDS011;5327;47.238;-2.304;2023-03-11T03:17:12;15.33;;;6.40;;
10557;SDS011;5327;47.238;-2.304;2023-03-11T03:19:38;15.03;;;6.03;;
10557;SDS011;5327;47.238;-2.304;2023-03-11T03:22:04;13.70;;;5.23;;
10557;SDS011;5327;47.238;-2.304;2023-03-11T03:24:29;16.93;;;7.43;;
10557;SDS011;5327;47.238;-2.304;2023-03-11T03:26:55;19.77;;;6.23;;
10557;SDS011;5327;47.238;-2.304;2023-03-11T03:29:20;12.77;;;6.50;;
10557;SDS011;5327;47.238;-2.304;2023-03-11T03:31:46;20.90;;;7.27;;
10557;SDS011;5327;47.238;-2.304;2023-03-11T03:34:12;11.60;;;6.67;;
10557;SDS011;5327;47.238;-2.304;2023-03-11T03:36:40;14.60;;;6.47;;
10557;SDS011;5327;47.238;-2.304;2023-03-11T03:39:06;27.97;;;6.97;;
10557;SDS011;5327;47.238;-2.304;2023-03-11T03:41:32;20.60;;;6.23;;
10557;SDS011;5327;47.238;-2.304;2023-03-11T03:43:57;21.93;;;9.23;;
10557;SDS011;5327;47.238;-2.304;2023-03-11T03:46:23;21.10;;;7.50;;
10557;SDS011;5327;47.238;-2.304;2023-03-11T03:48:49;20.20;;;7.00;;
10557;SDS011;5327;47.238;-2.304;2023-03-11T03:51:15;21.03;;;7.50;;
10557;SDS011;5327;47.238;-2.304;2023-03-11T03:53:41;22.97;;;8.07;;
10557;SDS011;5327;47.238;-2.304;2023-03-11T03:56:12;24.03;;;8.37;;
10557;SDS011;5327;47.238;-2.304;2023-03-11T03:58:39;23.50;;;6.60;;
10557;SDS011;5327;47.238;-2.304;2023-03-11T04:01:05;18.57;;;6.80;;
10557;SDS011;5327;47.238;-2.304;2023-03-11T04:03:31;17.57;;;9.00;;
10557;SDS011;5327;47.238;-2.304;2023-03-11T04:06:32;23.17;;;8.23;;
10557;SDS011;5327;47.238;-2.304;2023-03-11T04:08:51;17.00;;;7.10;;
10557;SDS011;5327;47.238;-2.304;2023-03-11T04:11:18;20.93;;;7.17;;
10557;SDS011;5327;47.238;-2.304;2023-03-11T04:13:44;16.23;;;9.40;;
10557;SDS011;5327;47.238;-2.304;2023-03-11T04:16:15;13.83;;;6.07;;
10557;SDS011;5327;47.238;-2.304;2023-03-11T04:18:43;17.37;;;6.63;;
10557;SDS011;5327;47.238;-2.304;2023-03-11T04:21:09;15.10;;;5.80;;
10557;SDS011;5327;47.238;-2.304;2023-03-11T04:23:35;12.83;;;7.10;;
10557;SDS011;5327;47.238;-2.304;2023-03-11T04:26:01;17.57;;;6.80;;
10557;SDS011;5327;47.238;-2.304;2023-03-11T04:28:26;12.27;;;6.33;;
10557;SDS011;5327;47.238;-2.304;2023-03-11T04:30:52;12.37;;;6.50;;
10557;SDS011;5327;47.238;-2.304;2023-03-11T04:33:18;16.13;;;7.10;;
10557;SDS011;5327;47.238;-2.304;2023-03-11T04:35:44;14.73;;;7.57;;
10557;SDS011;5327;47.238;-2.304;2023-03-11T04:38:09;21.70;;;8.00;;
10557;SDS011;5327;47.238;-2.304;2023-03-11T04:40:36;15.20;;;7.00;;
10557;SDS011;5327;47.238;-2.304;2023-03-11T04:43:02;16.37;;;7.17;;
10557;SDS011;5327;47.238;-2.304;2023-03-11T04:45:28;19.37;;;7.30;;
10557;SDS011;5327;47.238;-2.304;2023-03-11T04:47:54;14.67;;;7.00;;
10557;SDS011;5327;47.238;-2.304;2023-03-11T04:50:19;18.43;;;7.30;;
10557;SDS011;5327;47.238;-2.304;2023-03-11T04:52:45;15.20;;;7.20;;
10557;SDS011;5327;47.238;-2.304;2023-03-11T04:55:11;17.50;;;8.00;;
10557;SDS011;5327;47.238;-2.304;2023-03-11T04:57:38;12.67;;;7.00;;
10557;SDS011;5327;47.238;-2.304;2023-03-11T05:00:04;14.10;;;7.50;;
10557;SDS011;5327;47.238;-2.304;2023-03-11T05:02:37;13.47;;;6.93;;
10557;SDS011;5327;47.238;-2.304;2023-03-11T05:05:04;13.50;;;6.80;;
10557;SDS011;5327;47.238;-2.304;2023-03-11T05:07:30;12.40;;;7.40;;
10557;SDS011;5327;47.238;-2.304;2023-03-11T05:09:55;11.70;;;6.40;;
10557;SDS011;5327;47.238;-2.304;2023-03-11T05:12:21;13.00;;;7.00;;
10557;SDS011;5327;47.238;-2.304;2023-03-11T05:14:47;11.37;;;6.47;;
10557;SDS011;5327;47.238;-2.304;2023-03-11T05:17:12;14.30;;;8.87;;
10557;SDS011;5327;47.238;-2.304;2023-03-11T05:19:39;13.03;;;8.00;;
10557;SDS011;5327;47.238;-2.304;2023-03-11T05:22:05;13.23;;;7.30;;
10557;SDS011;5327;47.238;-2.304;2023-03-11T05:24:31;12.90;;;7.50;;
10557;SDS011;5327;47.238;-2.304;2023-03-11T05:26:57;11.83;;;6.47;;
10557;SDS011;5327;47.238;-2.304;2023-03-11T05:29:23;16.93;;;8.57;;
10557;SDS011;5327;47.238;-2.304;2023-03-11T05:31:49;10.50;;;5.63;;
10557;SDS011;5327;47.238;-2.304;2023-03-11T05:34:16;12.20;;;7.43;;
10557;SDS011;5327;47.238;-2.304;2023-03-11T05:36:42;11.77;;;7.87;;
10557;SDS011;5327;47.238;-2.304;2023-03-11T05:39:08;13.83;;;7.03;;
10557;SDS011;5327;47.238;-2.304;2023-03-11T05:41:34;14.00;;;8.33;;
10557;SDS011;5327;47.238;-2.304;2023-03-11T05:44:00;12.90;;;7.20;;
10557;SDS011;5327;47.238;-2.304;2023-03-11T05:46:26;12.40;;;6.00;;
10557;SDS011;5327;47.238;-2.304;2023-03-11T05:48:52;10.80;;;6.33;;
10557;SDS011;5327;47.238;-2.304;2023-03-11T05:51:18;14.20;;;8.10;;
10557;SDS011;5327;47.238;-2.304;2023-03-11T05:53:44;14.87;;;8.23;;
10557;SDS011;5327;47.238;-2.304;2023-03-11T05:56:12;14.77;;;8.20;;
10557;SDS011;5327;47.238;-2.304;2023-03-11T05:58:39;12.47;;;7.30;;
10557;SDS011;5327;47.238;-2.304;2023-03-11T06:01:09;9.17;;;5.70;;
10557;SDS011;5327;47.238;-2.304;2023-03-11T06:03:35;12.00;;;6.67;;
10557;SDS011;5327;47.238;-2.304;2023-03-11T06:06:03;10.27;;;5.90;;
10557;SDS011;5327;47.238;-2.304;2023-03-11T06:08:30;11.67;;;6.33;;
10557;SDS011;5327;47.238;-2.304;2023-03-11T06:11:08;9.67;;;5.90;;
10557;SDS011;5327;47.238;-2.304;2023-03-11T06:13:35;10.20;;;6.63;;
10557;SDS011;5327;47.238;-2.304;2023-03-11T06:16:02;13.10;;;6.63;;
10557;SDS011;5327;47.238;-2.304;2023-03-11T06:18:28;14.97;;;8.50;;
10557;SDS011;5327;47.238;-2.304;2023-03-11T06:20:56;11.73;;;6.77;;
10557;SDS011;5327;47.238;-2.304;2023-03-11T06:23:23;15.83;;;9.17;;
10557;SDS011;5327;47.238;-2.304;2023-03-11T06:25:56;16.00;;;9.07;;
10557;SDS011;5327;47.238;-2.304;2023-03-11T06:28:29;14.40;;;8.90;;
10557;SDS011;5327;47.238;-2.304;2023-03-11T06:30:56;12.80;;;7.83;;
10557;SDS011;5327;47.238;-2.304;2023-03-11T06:33:30;14.30;;;9.33;;
10557;SDS011;5327;47.238;-2.304;2023-03-11T06:35:59;15.10;;;8.83;;
10557;SDS011;5327;47.238;-2.304;2023-03-11T06:38:26;16.80;;;9.50;;
10557;SDS011;5327;47.238;-2.304;2023-03-11T06:40:52;18.53;;;10.27;;
10557;SDS011;5327;47.238;-2.304;2023-03-11T06:43:18;14.93;;;9.30;;
10557;SDS011;5327;47.238;-2.304;2023-03-11T06:45:45;18.17;;;8.80;;
10557;SDS011;5327;47.238;-2.304;2023-03-11T06:48:11;15.43;;;9.70;;
10557;SDS011;5327;47.238;-2.304;2023-03-11T06:50:37;21.20;;;11.77;;
10557;SDS011;5327;47.238;-2.304;2023-03-11T06:53:03;18.33;;;10.30;;
10557;SDS011;5327;47.238;-2.304;2023-03-11T06:55:31;17.40;;;10.70;;
10557;SDS011;5327;47.238;-2.304;2023-03-11T06:57:57;19.50;;;11.90;;
10557;SDS011;5327;47.238;-2.304;2023-03-11T07:00:23;17.27;;;10.47;;
10557;SDS011;5327;47.238;-2.304;2023-03-11T07:02:49;18.20;;;10.70;;
10557;SDS011;5327;47.238;-2.304;2023-03-11T07:05:14;17.00;;;10.40;;
10557;SDS011;5327;47.238;-2.304;2023-03-11T07:07:41;19.00;;;10.80;;
10557;SDS011;5327;47.238;-2.304;2023-03-11T07:10:07;17.00;;;10.43;;
10557;SDS011;5327;47.238;-2.304;2023-03-11T07:12:33;17.67;;;10.13;;
10557;SDS011;5327;47.238;-2.304;2023-03-11T07:14:59;20.43;;;10.87;;
10557;SDS011;5327;47.238;-2.304;2023-03-11T07:17:25;17.80;;;10.23;;
10557;SDS011;5327;47.238;-2.304;2023-03-11T07:19:50;16.60;;;9.67;;
10557;SDS011;5327;47.238;-2.304;2023-03-11T07:22:16;27.37;;;12.40;;
10557;SDS011;5327;47.238;-2.304;2023-03-11T07:24:48;24.73;;;11.90;;
10557;SDS011;5327;47.238;-2.304;2023-03-11T07:27:15;21.03;;;11.43;;
10557;SDS011;5327;47.238;-2.304;2023-03-11T07:29:41;20.30;;;11.00;;
10557;SDS011;5327;47.238;-2.304;2023-03-11T07:32:07;16.80;;;10.40;;
10557;SDS011;5327;47.238;-2.304;2023-03-11T07:34:33;21.70;;;12.17;;
10557;SDS011;5327;47.238;-2.304;2023-03-11T07:36:59;68.03;;;46.50;;
10557;SDS011;5327;47.238;-2.304;2023-03-11T07:39:25;40.00;;;27.57;;
10557;SDS011;5327;47.238;-2.304;2023-03-11T07:41:50;38.00;;;23.10;;
10557;SDS011;5327;47.238;-2.304;2023-03-11T07:44:17;31.83;;;19.70;;
10557;SDS011;5327;47.238;-2.304;2023-03-11T07:46:43;32.63;;;16.17;;
10557;SDS011;5327;47.238;-2.304;2023-03-11T07:49:09;23.73;;;15.40;;
10557;SDS011;5327;47.238;-2.304;2023-03-11T07:51:35;24.33;;;13.67;;
10557;SDS011;5327;47.238;-2.304;2023-03-11T07:54:04;24.70;;;11.00;;
10557;SDS011;5327;47.238;-2.304;2023-03-11T07:56:31;19.77;;;11.27;;
10557;SDS011;5327;47.238;-2.304;2023-03-11T07:58:58;24.50;;;11.07;;
10557;SDS011;5327;47.238;-2.304;2023-03-11T08:01:26;26.27;;;11.13;;
10557;SDS011;5327;47.238;-2.304;2023-03-11T08:03:59;31.63;;;10.30;;
10557;SDS011;5327;47.238;-2.304;2023-03-11T08:06:26;24.50;;;10.63;;
10557;SDS011;5327;47.238;-2.304;2023-03-11T08:08:55;20.00;;;10.87;;
10557;SDS011;5327;47.238;-2.304;2023-03-11T08:11:24;37.93;;;12.90;;
10557;SDS011;5327;47.238;-2.304;2023-03-11T08:13:51;31.83;;;14.00;;
10557;SDS011;5327;47.238;-2.304;2023-03-11T08:16:18;23.30;;;10.13;;
10557;SDS011;5327;47.238;-2.304;2023-03-11T08:18:46;17.90;;;10.27;;
10557;SDS011;5327;47.238;-2.304;2023-03-11T08:21:13;22.70;;;10.27;;
10557;SDS011;5327;47.238;-2.304;2023-03-11T08:23:41;49.20;;;15.40;;
10557;SDS011;5327;47.238;-2.304;2023-03-11T08:26:09;51.43;;;17.30;;
10557;SDS011;5327;47.238;-2.304;2023-03-11T08:28:36;59.30;;;16.37;;
10557;SDS011;5327;47.238;-2.304;2023-03-11T08:31:02;48.87;;;12.80;;
10557;SDS011;5327;47.238;-2.304;2023-03-11T08:33:35;47.50;;;12.70;;
10557;SDS011;5327;47.238;-2.304;2023-03-11T08:36:01;47.13;;;12.50;;
10557;SDS011;5327;47.238;-2.304;2023-03-11T08:38:27;49.33;;;12.40;;
10557;SDS011;5327;47.238;-2.304;2023-03-11T08:40:52;68.20;;;14.70;;
10557;SDS011;5327;47.238;-2.304;2023-03-11T08:43:18;69.50;;;14.50;;
10557;SDS011;5327;47.238;-2.304;2023-03-11T08:45:44;71.90;;;16.30;;
10557;SDS011;5327;47.238;-2.304;2023-03-11T08:48:10;68.33;;;13.20;;
10557;SDS011;5327;47.238;-2.304;2023-03-11T08:50:38;31.90;;;8.67;;
10557;SDS011;5327;47.238;-2.304;2023-03-11T08:53:05;37.00;;;10.03;;
10557;SDS011;5327;47.238;-2.304;2023-03-11T08:55:31;48.23;;;10.73;;
10557;SDS011;5327;47.238;-2.304;2023-03-11T08:57:56;36.07;;;9.50;;
10557;SDS011;5327;47.238;-2.304;2023-03-11T09:00:22;51.97;;;10.43;;
10557;SDS011;5327;47.238;-2.304;2023-03-11T09:02:48;39.70;;;9.10;;
10557;SDS011;5327;47.238;-2.304;2023-03-11T09:05:14;26.13;;;6.57;;
10557;SDS011;5327;47.238;-2.304;2023-03-11T09:07:39;59.20;;;8.50;;
10557;SDS011;5327;47.238;-2.304;2023-03-11T09:10:05;23.53;;;6.37;;
10557;SDS011;5327;47.238;-2.304;2023-03-11T09:12:31;42.70;;;9.50;;
10557;SDS011;5327;47.238;-2.304;2023-03-11T09:14:57;43.20;;;9.20;;
10557;SDS011;5327;47.238;-2.304;2023-03-11T09:17:23;34.27;;;8.97;;
10557;SDS011;5327;47.238;-2.304;2023-03-11T09:19:49;45.13;;;9.23;;
10557;SDS011;5327;47.238;-2.304;2023-03-11T09:22:14;53.30;;;9.47;;
10557;SDS011;5327;47.238;-2.304;2023-03-11T09:24:40;66.77;;;12.80;;
10557;SDS011;5327;47.238;-2.304;2023-03-11T09:27:06;53.23;;;12.90;;
10557;SDS011;5327;47.238;-2.304;2023-03-11T09:29:31;47.53;;;11.13;;
10557;SDS011;5327;47.238;-2.304;2023-03-11T09:32:00;61.80;;;12.37;;
10557;SDS011;5327;47.238;-2.304;2023-03-11T09:34:26;59.43;;;10.40;;
10557;SDS011;5327;47.238;-2.304;2023-03-11T09:36:51;35.73;;;10.23;;
10557;SDS011;5327;47.238;-2.304;2023-03-11T09:39:17;50.10;;;9.43;;
10557;SDS011;5327;47.238;-2.304;2023-03-11T09:57:51;63.57;;;12.60;;
10557;SDS011;5327;47.238;-2.304;2023-03-11T10:00:18;64.43;;;10.10;;
10557;SDS011;5327;47.238;-2.304;2023-03-11T10:02:46;46.57;;;10.00;;
10557;SDS011;5327;47.238;-2.304;2023-03-11T10:05:19;47.70;;;9.53;;
10557;SDS011;5327;47.238;-2.304;2023-03-11T10:07:59;35.03;;;7.83;;
10557;SDS011;5327;47.238;-2.304;2023-03-11T10:10:44;34.07;;;8.60;;
10557;SDS011;5327;47.238;-2.304;2023-03-11T10:13:19;40.20;;;8.80;;
10557;SDS011;5327;47.238;-2.304;2023-03-11T10:18:51;43.73;;;8.03;;
10557;SDS011;5327;47.238;-2.304;2023-03-11T10:22:31;38.33;;;9.20;;
10557;SDS011;5327;47.238;-2.304;2023-03-11T10:27:18;33.17;;;7.40;;
10557;SDS011;5327;47.238;-2.304;2023-03-11T10:30:02;43.13;;;8.57;;
10557;SDS011;5327;47.238;-2.304;2023-03-11T10:32:50;40.03;;;8.37;;
10557;SDS011;5327;47.238;-2.304;2023-03-11T10:35:26;43.20;;;8.97;;
10557;SDS011;5327;47.238;-2.304;2023-03-11T10:38:17;56.40;;;8.90;;
10557;SDS011;5327;47.238;-2.304;2023-03-11T10:40:56;32.60;;;7.67;;
10557;SDS011;5327;47.238;-2.304;2023-03-11T10:43:30;41.90;;;7.57;;
10557;SDS011;5327;47.238;-2.304;2023-03-11T10:46:24;31.37;;;7.27;;
10557;SDS011;5327;47.238;-2.304;2023-03-11T10:48:51;28.80;;;7.30;;
10557;SDS011;5327;47.238;-2.304;2023-03-11T10:53:50;28.00;;;7.60;;
10557;SDS011;5327;47.238;-2.304;2023-03-11T10:56:27;43.70;;;7.40;;
10557;SDS011;5327;47.238;-2.304;2023-03-11T10:58:52;41.23;;;9.10;;
10557;SDS011;5327;47.238;-2.304;2023-03-11T11:01:19;39.50;;;8.47;;
10557;SDS011;5327;47.238;-2.304;2023-03-11T11:03:49;48.13;;;8.80;;
10557;SDS011;5327;47.238;-2.304;2023-03-11T11:12:01;35.63;;;9.23;;
10557;SDS011;5327;47.238;-2.304;2023-03-11T11:17:22;41.80;;;8.10;;
10557;SDS011;5327;47.238;-2.304;2023-03-11T11:19:56;40.73;;;8.60;;
10557;SDS011;5327;47.238;-2.304;2023-03-11T11:22:23;47.03;;;9.00;;
10557;SDS011;5327;47.238;-2.304;2023-03-11T11:24:51;32.03;;;7.87;;
10557;SDS011;5327;47.238;-2.304;2023-03-11T11:29:45;39.20;;;8.67;;
10557;SDS011;5327;47.238;-2.304;2023-03-11T11:32:45;36.47;;;9.17;;
10557;SDS011;5327;47.238;-2.304;2023-03-11T11:37:41;54.60;;;10.70;;
10557;SDS011;5327;47.238;-2.304;2023-03-11T11:43:03;53.43;;;10.13;;
10557;SDS011;5327;47.238;-2.304;2023-03-11T11:48:32;52.47;;;9.20;;
10557;SDS011;5327;47.238;-2.304;2023-03-11T11:51:00;40.57;;;10.00;;
10557;SDS011;5327;47.238;-2.304;2023-03-11T11:53:40;40.80;;;9.73;;
10557;SDS011;5327;47.238;-2.304;2023-03-11T11:56:06;36.53;;;9.40;;
10557;SDS011;5327;47.238;-2.304;2023-03-11T11:58:32;44.53;;;10.73;;
10557;SDS011;5327;47.238;-2.304;2023-03-11T12:01:15;50.47;;;11.30;;
10557;SDS011;5327;47.238;-2.304;2023-03-11T12:03:54;44.93;;;10.40;;
10557;SDS011;5327;47.238;-2.304;2023-03-11T12:14:42;85.20;;;13.20;;
10557;SDS011;5327;47.238;-2.304;2023-03-11T12:17:31;69.13;;;12.70;;
10557;SDS011;5327;47.238;-2.304;2023-03-11T12:20:46;63.20;;;12.30;;
10557;SDS011;5327;47.238;-2.304;2023-03-11T12:25:51;63.97;;;11.77;;
10557;SDS011;5327;47.238;-2.304;2023-03-11T12:31:07;54.33;;;12.40;;
10557;SDS011;5327;47.238;-2.304;2023-03-11T12:38:56;95.80;;;14.83;;
10557;SDS011;5327;47.238;-2.304;2023-03-11T12:41:30;84.20;;;14.87;;
10557;SDS011;5327;47.238;-2.304;2023-03-11T12:49:22;85.37;;;14.30;;
10557;SDS011;5327;47.238;-2.304;2023-03-11T12:54:36;58.23;;;12.07;;
10557;SDS011;5327;47.238;-2.304;2023-03-11T13:05:13;69.27;;;12.23;;
10557;SDS011;5327;47.238;-2.304;2023-03-11T13:07:49;78.10;;;12.87;;
10557;SDS011;5327;47.238;-2.304;2023-03-11T13:15:52;65.37;;;12.43;;
10557;SDS011;5327;47.238;-2.304;2023-03-11T13:20:49;51.37;;;12.30;;
10557;SDS011;5327;47.238;-2.304;2023-03-11T13:23:21;55.70;;;10.40;;
10557;SDS011;5327;47.238;-2.304;2023-03-11T13:34:00;49.83;;;11.20;;
10557;SDS011;5327;47.238;-2.304;2023-03-11T13:42:32;48.17;;;11.37;;
10557;SDS011;5327;47.238;-2.304;2023-03-11T13:45:04;71.17;;;14.30;;
10557;SDS011;5327;47.238;-2.304;2023-03-11T13:47:36;72.53;;;15.93;;
10557;SDS011;5327;47.238;-2.304;2023-03-11T13:53:08;72.87;;;13.73;;
10557;SDS011;5327;47.238;-2.304;2023-03-11T13:55:44;88.90;;;14.90;;
10557;SDS011;5327;47.238;-2.304;2023-03-11T13:58:21;107.47;;;16.67;;
10557;SDS011;5327;47.238;-2.304;2023-03-11T14:00:53;79.60;;;15.13;;
10557;SDS011;5327;47.238;-2.304;2023-03-11T14:03:20;93.93;;;16.73;;
10557;SDS011;5327;47.238;-2.304;2023-03-11T14:05:50;73.90;;;14.40;;
10557;SDS011;5327;47.238;-2.304;2023-03-11T14:08:24;66.60;;;13.97;;
10557;SDS011;5327;47.238;-2.304;2023-03-11T14:13:20;86.63;;;17.60;;
10557;SDS011;5327;47.238;-2.304;2023-03-11T14:15:50;97.27;;;17.83;;
10557;SDS011;5327;47.238;-2.304;2023-03-11T14:18:24;90.67;;;17.80;;
10557;SDS011;5327;47.238;-2.304;2023-03-11T14:20:53;94.87;;;17.70;;
10557;SDS011;5327;47.238;-2.304;2023-03-11T14:23:21;106.53;;;18.57;;
10557;SDS011;5327;47.238;-2.304;2023-03-11T14:25:56;110.30;;;19.20;;
10557;SDS011;5327;47.238;-2.304;2023-03-11T14:28:29;95.97;;;16.83;;
10557;SDS011;5327;47.238;-2.304;2023-03-11T14:30:59;136.47;;;20.13;;
10557;SDS011;5327;47.238;-2.304;2023-03-11T14:33:25;106.33;;;19.63;;
10557;SDS011;5327;47.238;-2.304;2023-03-11T14:35:56;118.67;;;26.43;;
10557;SDS011;5327;47.238;-2.304;2023-03-11T14:38:31;102.53;;;18.20;;
10557;SDS011;5327;47.238;-2.304;2023-03-11T14:40:58;106.50;;;20.23;;
10557;SDS011;5327;47.238;-2.304;2023-03-11T14:43:26;114.10;;;18.73;;
10557;SDS011;5327;47.238;-2.304;2023-03-11T14:45:56;86.40;;;15.60;;
10557;SDS011;5327;47.238;-2.304;2023-03-11T14:48:33;90.57;;;18.00;;
10557;SDS011;5327;47.238;-2.304;2023-03-11T14:51:03;83.97;;;16.20;;
10557;SDS011;5327;47.238;-2.304;2023-03-11T14:53:37;88.63;;;15.10;;
10557;SDS011;5327;47.238;-2.304;2023-03-11T14:56:12;89.43;;;15.30;;
10557;SDS011;5327;47.238;-2.304;2023-03-11T14:58:43;86.07;;;16.93;;
10557;SDS011;5327;47.238;-2.304;2023-03-11T15:01:29;55.83;;;13.43;;
10557;SDS011;5327;47.238;-2.304;2023-03-11T15:04:11;55.23;;;12.07;;
10557;SDS011;5327;47.238;-2.304;2023-03-11T15:06:41;68.57;;;15.03;;
10557;SDS011;5327;47.238;-2.304;2023-03-11T15:09:11;71.60;;;14.17;;
10557;SDS011;5327;47.238;-2.304;2023-03-11T15:11:45;78.17;;;16.03;;
10557;SDS011;5327;47.238;-2.304;2023-03-11T15:14:34;67.17;;;12.90;;
10557;SDS011;5327;47.238;-2.304;2023-03-11T15:19:40;61.60;;;14.90;;
10557;SDS011;5327;47.238;-2.304;2023-03-11T15:22:26;79.33;;;14.27;;
10557;SDS011;5327;47.238;-2.304;2023-03-11T15:25:01;71.30;;;14.70;;
10557;SDS011;5327;47.238;-2.304;2023-03-11T15:27:38;99.87;;;15.40;;
10557;SDS011;5327;47.238;-2.304;2023-03-11T15:30:14;74.33;;;14.03;;
10557;SDS011;5327;47.238;-2.304;2023-03-11T15:32:47;67.43;;;17.40;;
10557;SDS011;5327;47.238;-2.304;2023-03-11T15:35:18;92.90;;;16.83;;
10557;SDS011;5327;47.238;-2.304;2023-03-11T15:37:46;71.33;;;16.10;;
10557;SDS011;5327;47.238;-2.304;2023-03-11T15:43:18;69.20;;;16.20;;
10557;SDS011;5327;47.238;-2.304;2023-03-11T15:45:40;71.43;;;15.70;;
10557;SDS011;5327;47.238;-2.304;2023-03-11T15:48:10;105.13;;;16.47;;
10557;SDS011;5327;47.238;-2.304;2023-03-11T15:50:44;94.07;;;17.63;;
10557;SDS011;5327;47.238;-2.304;2023-03-11T15:53:14;68.33;;;17.30;;
10557;SDS011;5327;47.238;-2.304;2023-03-11T15:55:40;73.27;;;16.90;;
10557;SDS011;5327;47.238;-2.304;2023-03-11T15:58:06;56.13;;;12.97;;
10557;SDS011;5327;47.238;-2.304;2023-03-11T16:00:34;89.07;;;17.80;;
10557;SDS011;5327;47.238;-2.304;2023-03-11T16:03:00;87.03;;;17.00;;
10557;SDS011;5327;47.238;-2.304;2023-03-11T16:05:26;87.40;;;14.93;;
10557;SDS011;5327;47.238;-2.304;2023-03-11T16:07:52;107.23;;;22.73;;
10557;SDS011;5327;47.238;-2.304;2023-03-11T16:10:22;67.10;;;18.20;;
10557;SDS011;5327;47.238;-2.304;2023-03-11T16:12:52;87.67;;;15.93;;
10557;SDS011;5327;47.238;-2.304;2023-03-11T16:17:52;90.97;;;19.50;;
10557;SDS011;5327;47.238;-2.304;2023-03-11T16:20:20;72.27;;;13.00;;
10557;SDS011;5327;47.238;-2.304;2023-03-11T16:22:48;107.63;;;18.10;;
10557;SDS011;5327;47.238;-2.304;2023-03-11T16:25:25;77.53;;;16.27;;
10557;SDS011;5327;47.238;-2.304;2023-03-11T16:27:54;75.43;;;19.10;;
10557;SDS011;5327;47.238;-2.304;2023-03-11T16:30:21;83.60;;;18.63;;
10557;SDS011;5327;47.238;-2.304;2023-03-11T16:32:48;83.30;;;16.43;;
10557;SDS011;5327;47.238;-2.304;2023-03-11T16:35:14;82.83;;;16.27;;
10557;SDS011;5327;47.238;-2.304;2023-03-11T16:37:40;67.33;;;13.27;;
10557;SDS011;5327;47.238;-2.304;2023-03-11T16:40:10;83.47;;;14.70;;
10557;SDS011;5327;47.238;-2.304;2023-03-11T16:42:37;97.33;;;18.77;;